sensor_id;sensor_type;location;lat;lon;timestamp;P1;durP1;ratioP1;P2;durP2;ratioP2
45812;SDS011;31519;45.408;10.962;2022-12-15T00:00:28;42.05;;;16.77;;
45812;SDS011;31519;45.408;10.962;2022-12-15T00:03:27;30.77;;;15.48;;
45812;SDS011;31519;45.408;10.962;2022-12-15T00:06:14;34.92;;;16.90;;
45812;SDS011;31519;45.408;10.962;2022-12-15T00:09:01;45.80;;;17.13;;
45812;SDS011;31519;45.408;10.962;2022-12-15T00:11:57;29.25;;;13.15;;
45812;SDS011;31519;45.408;10.962;2022-12-15T00:14:44;34.97;;;13.90;;
45812;SDS011;31519;45.408;10.962;2022-12-15T00:17:31;32.30;;;14.45;;
45812;SDS011;31519;45.408;10.962;2022-12-15T00:20:17;28.75;;;12.02;;
45812;SDS011;31519;45.408;10.962;2022-12-15T00:23:06;31.95;;;11.88;;
45812;SDS011;31519;45.408;10.962;2022-12-15T00:25:55;38.85;;;13.55;;
45812;SDS011;31519;45.408;10.962;2022-12-15T00:28:42;37.28;;;13.43;;
45812;SDS011;31519;45.408;10.962;2022-12-15T00:31:29;37.42;;;15.43;;
45812;SDS011;31519;45.408;10.962;2022-12-15T00:34:17;36.47;;;16.17;;
45812;SDS011;31519;45.408;10.962;2022-12-15T00:37:04;34.13;;;15.23;;
45812;SDS011;31519;45.408;10.962;2022-12-15T00:39:51;28.25;;;14.48;;
45812;SDS011;31519;45.408;10.962;2022-12-15T00:42:25;40.35;;;14.73;;
45812;SDS011;31519;45.408;10.962;2022-12-15T00:44:55;30.90;;;15.82;;
45812;SDS011;31519;45.408;10.962;2022-12-15T00:47:23;39.60;;;14.50;;
45812;SDS011;31519;45.408;10.962;2022-12-15T00:49:53;32.65;;;15.07;;
45812;SDS011;31519;45.408;10.962;2022-12-15T00:52:39;37.42;;;16.30;;
45812;SDS011;31519;45.408;10.962;2022-12-15T00:55:26;33.17;;;15.30;;
45812;SDS011;31519;45.408;10.962;2022-12-15T00:58:13;32.85;;;15.02;;
45812;SDS011;31519;45.408;10.962;2022-12-15T01:01:09;30.40;;;14.98;;
45812;SDS011;31519;45.408;10.962;2022-12-15T01:03:56;32.85;;;14.75;;
45812;SDS011;31519;45.408;10.962;2022-12-15T01:06:43;37.50;;;13.63;;
45812;SDS011;31519;45.408;10.962;2022-12-15T01:09:29;35.63;;;15.27;;
45812;SDS011;31519;45.408;10.962;2022-12-15T01:12:16;34.97;;;14.50;;
45812;SDS011;31519;45.408;10.962;2022-12-15T01:15:03;29.67;;;14.00;;
45812;SDS011;31519;45.408;10.962;2022-12-15T01:17:51;33.83;;;14.30;;
45812;SDS011;31519;45.408;10.962;2022-12-15T01:20:38;36.08;;;13.10;;
45812;SDS011;31519;45.408;10.962;2022-12-15T01:23:07;26.38;;;13.23;;
45812;SDS011;31519;45.408;10.962;2022-12-15T01:25:36;29.80;;;12.82;;
45812;SDS011;31519;45.408;10.962;2022-12-15T01:28:06;26.52;;;12.73;;
45812;SDS011;31519;45.408;10.962;2022-12-15T01:30:34;32.03;;;14.27;;
45812;SDS011;31519;45.408;10.962;2022-12-15T01:33:02;30.17;;;13.63;;
45812;SDS011;31519;45.408;10.962;2022-12-15T01:35:30;24.92;;;12.45;;
45812;SDS011;31519;45.408;10.962;2022-12-15T01:37:59;29.52;;;12.00;;
45812;SDS011;31519;45.408;10.962;2022-12-15T01:40:27;23.33;;;12.65;;
45812;SDS011;31519;45.408;10.962;2022-12-15T01:43:18;37.45;;;13.63;;
45812;SDS011;31519;45.408;10.962;2022-12-15T01:45:55;34.25;;;13.30;;
45812;SDS011;31519;45.408;10.962;2022-12-15T01:48:28;26.20;;;12.87;;
45812;SDS011;31519;45.408;10.962;2022-12-15T01:51:19;30.08;;;12.73;;
45812;SDS011;31519;45.408;10.962;2022-12-15T01:54:02;21.42;;;11.25;;
45812;SDS011;31519;45.408;10.962;2022-12-15T01:56:36;54.47;;;13.15;;
45812;SDS011;31519;45.408;10.962;2022-12-15T01:59:11;29.02;;;14.48;;
45812;SDS011;31519;45.408;10.962;2022-12-15T02:04:17;34.72;;;11.20;;
45812;SDS011;31519;45.408;10.962;2022-12-15T02:06:48;25.80;;;11.40;;
45812;SDS011;31519;45.408;10.962;2022-12-15T02:09:17;28.48;;;11.90;;
45812;SDS011;31519;45.408;10.962;2022-12-15T02:14:43;25.67;;;10.00;;
45812;SDS011;31519;45.408;10.962;2022-12-15T02:17:30;23.33;;;11.15;;
45812;SDS011;31519;45.408;10.962;2022-12-15T02:37:11;24.60;;;10.02;;
45812;SDS011;31519;45.408;10.962;2022-12-15T02:39:43;20.55;;;9.57;;
45812;SDS011;31519;45.408;10.962;2022-12-15T02:42:11;21.58;;;10.23;;
45812;SDS011;31519;45.408;10.962;2022-12-15T02:44:45;27.30;;;10.77;;
45812;SDS011;31519;45.408;10.962;2022-12-15T03:01:34;24.60;;;11.65;;
45812;SDS011;31519;45.408;10.962;2022-12-15T03:04:08;22.27;;;10.52;;
45812;SDS011;31519;45.408;10.962;2022-12-15T03:06:38;30.23;;;11.27;;
45812;SDS011;31519;45.408;10.962;2022-12-15T03:09:06;21.92;;;10.85;;
45812;SDS011;31519;45.408;10.962;2022-12-15T03:11:34;22.13;;;9.95;;
45812;SDS011;31519;45.408;10.962;2022-12-15T03:14:04;22.73;;;10.93;;
45812;SDS011;31519;45.408;10.962;2022-12-15T03:16:32;21.95;;;10.85;;
45812;SDS011;31519;45.408;10.962;2022-12-15T03:19:00;17.33;;;10.10;;
45812;SDS011;31519;45.408;10.962;2022-12-15T03:21:29;15.75;;;7.88;;
45812;SDS011;31519;45.408;10.962;2022-12-15T03:23:58;15.35;;;7.95;;
45812;SDS011;31519;45.408;10.962;2022-12-15T03:26:26;15.07;;;8.10;;
45812;SDS011;31519;45.408;10.962;2022-12-15T03:28:54;13.27;;;7.28;;
45812;SDS011;31519;45.408;10.962;2022-12-15T03:31:22;19.98;;;7.40;;
45812;SDS011;31519;45.408;10.962;2022-12-15T03:33:52;15.32;;;7.32;;
45812;SDS011;31519;45.408;10.962;2022-12-15T03:36:20;16.27;;;6.90;;
45812;SDS011;31519;45.408;10.962;2022-12-15T03:38:52;18.17;;;8.52;;
45812;SDS011;31519;45.408;10.962;2022-12-15T03:41:20;19.25;;;7.65;;
45812;SDS011;31519;45.408;10.962;2022-12-15T03:43:48;25.45;;;9.40;;
45812;SDS011;31519;45.408;10.962;2022-12-15T03:46:16;25.15;;;10.30;;
45812;SDS011;31519;45.408;10.962;2022-12-15T03:48:45;25.70;;;10.75;;
45812;SDS011;31519;45.408;10.962;2022-12-15T03:51:13;24.88;;;10.27;;
45812;SDS011;31519;45.408;10.962;2022-12-15T03:53:42;30.20;;;9.95;;
45812;SDS011;31519;45.408;10.962;2022-12-15T03:56:10;32.17;;;10.48;;
45812;SDS011;31519;45.408;10.962;2022-12-15T03:58:38;26.02;;;11.80;;
45812;SDS011;31519;45.408;10.962;2022-12-15T04:01:18;25.00;;;11.35;;
45812;SDS011;31519;45.408;10.962;2022-12-15T04:03:55;22.65;;;11.88;;
45812;SDS011;31519;45.408;10.962;2022-12-15T04:06:28;29.20;;;12.67;;
45812;SDS011;31519;45.408;10.962;2022-12-15T04:08:57;25.33;;;13.07;;
45812;SDS011;31519;45.408;10.962;2022-12-15T04:11:25;26.88;;;12.95;;
45812;SDS011;31519;45.408;10.962;2022-12-15T04:13:53;28.50;;;13.23;;
45812;SDS011;31519;45.408;10.962;2022-12-15T04:16:21;37.05;;;16.60;;
45812;SDS011;31519;45.408;10.962;2022-12-15T04:18:50;39.67;;;15.55;;
45812;SDS011;31519;45.408;10.962;2022-12-15T04:21:38;55.85;;;19.88;;
45812;SDS011;31519;45.408;10.962;2022-12-15T04:24:06;45.92;;;18.17;;
45812;SDS011;31519;45.408;10.962;2022-12-15T04:26:53;47.92;;;19.55;;
45812;SDS011;31519;45.408;10.962;2022-12-15T04:29:40;41.22;;;19.02;;
45812;SDS011;31519;45.408;10.962;2022-12-15T04:32:27;54.72;;;22.42;;
45812;SDS011;31519;45.408;10.962;2022-12-15T04:35:18;46.17;;;21.63;;
45812;SDS011;31519;45.408;10.962;2022-12-15T04:38:04;54.80;;;22.73;;
45812;SDS011;31519;45.408;10.962;2022-12-15T04:40:53;52.10;;;22.75;;
45812;SDS011;31519;45.408;10.962;2022-12-15T04:43:39;45.92;;;21.27;;
45812;SDS011;31519;45.408;10.962;2022-12-15T04:46:26;42.63;;;19.83;;
45812;SDS011;31519;45.408;10.962;2022-12-15T04:49:13;50.17;;;20.08;;
45812;SDS011;31519;45.408;10.962;2022-12-15T04:52:00;43.65;;;21.45;;
45812;SDS011;31519;45.408;10.962;2022-12-15T04:54:46;33.30;;;15.77;;
45812;SDS011;31519;45.408;10.962;2022-12-15T04:57:34;29.42;;;14.55;;
45812;SDS011;31519;45.408;10.962;2022-12-15T05:00:20;36.05;;;14.90;;
45812;SDS011;31519;45.408;10.962;2022-12-15T05:03:09;25.30;;;13.48;;
45812;SDS011;31519;45.408;10.962;2022-12-15T05:05:56;34.20;;;13.68;;
45812;SDS011;31519;45.408;10.962;2022-12-15T05:08:43;32.88;;;14.18;;
45812;SDS011;31519;45.408;10.962;2022-12-15T05:11:30;35.30;;;15.60;;
45812;SDS011;31519;45.408;10.962;2022-12-15T05:14:17;33.67;;;14.65;;
45812;SDS011;31519;45.408;10.962;2022-12-15T05:17:03;38.45;;;16.17;;
45812;SDS011;31519;45.408;10.962;2022-12-15T05:19:51;31.13;;;15.20;;
45812;SDS011;31519;45.408;10.962;2022-12-15T05:22:37;44.60;;;16.42;;
45812;SDS011;31519;45.408;10.962;2022-12-15T05:25:25;35.78;;;15.68;;
45812;SDS011;31519;45.408;10.962;2022-12-15T05:28:12;33.35;;;15.90;;
45812;SDS011;31519;45.408;10.962;2022-12-15T05:30:59;36.88;;;16.17;;
45812;SDS011;31519;45.408;10.962;2022-12-15T05:33:46;40.03;;;17.83;;
45812;SDS011;31519;45.408;10.962;2022-12-15T05:36:15;46.40;;;22.15;;
45812;SDS011;31519;45.408;10.962;2022-12-15T05:38:43;41.15;;;19.60;;
45812;SDS011;31519;45.408;10.962;2022-12-15T05:41:18;42.03;;;21.05;;
45812;SDS011;31519;45.408;10.962;2022-12-15T05:43:47;40.20;;;20.83;;
45812;SDS011;31519;45.408;10.962;2022-12-15T05:46:17;43.88;;;21.60;;
45812;SDS011;31519;45.408;10.962;2022-12-15T05:48:46;40.95;;;18.98;;
45812;SDS011;31519;45.408;10.962;2022-12-15T05:51:14;43.03;;;20.52;;
45812;SDS011;31519;45.408;10.962;2022-12-15T05:53:42;40.97;;;21.08;;
45812;SDS011;31519;45.408;10.962;2022-12-15T05:56:12;44.58;;;22.02;;
45812;SDS011;31519;45.408;10.962;2022-12-15T05:58:41;48.63;;;20.88;;
45812;SDS011;31519;45.408;10.962;2022-12-15T06:01:13;35.78;;;18.80;;
45812;SDS011;31519;45.408;10.962;2022-12-15T06:03:44;45.28;;;19.70;;
45812;SDS011;31519;45.408;10.962;2022-12-15T06:06:14;38.35;;;18.75;;
45812;SDS011;31519;45.408;10.962;2022-12-15T06:08:43;38.92;;;18.70;;
45812;SDS011;31519;45.408;10.962;2022-12-15T06:11:13;47.63;;;18.65;;
45812;SDS011;31519;45.408;10.962;2022-12-15T06:13:43;37.15;;;20.58;;
45812;SDS011;31519;45.408;10.962;2022-12-15T06:16:21;37.03;;;19.52;;
45812;SDS011;31519;45.408;10.962;2022-12-15T06:18:54;46.08;;;20.35;;
45812;SDS011;31519;45.408;10.962;2022-12-15T06:23:54;37.03;;;17.73;;
45812;SDS011;31519;45.408;10.962;2022-12-15T06:26:37;40.70;;;18.77;;
45812;SDS011;31519;45.408;10.962;2022-12-15T06:29:07;43.40;;;19.67;;
45812;SDS011;31519;45.408;10.962;2022-12-15T06:31:38;35.85;;;18.50;;
45812;SDS011;31519;45.408;10.962;2022-12-15T06:34:10;40.75;;;19.05;;
45812;SDS011;31519;45.408;10.962;2022-12-15T06:36:40;42.25;;;18.48;;
45812;SDS011;31519;45.408;10.962;2022-12-15T06:39:10;43.97;;;20.38;;
45812;SDS011;31519;45.408;10.962;2022-12-15T06:41:41;46.75;;;21.35;;
45812;SDS011;31519;45.408;10.962;2022-12-15T06:44:14;56.72;;;22.80;;
45812;SDS011;31519;45.408;10.962;2022-12-15T06:46:44;50.20;;;22.02;;
45812;SDS011;31519;45.408;10.962;2022-12-15T06:49:13;42.53;;;22.15;;
45812;SDS011;31519;45.408;10.962;2022-12-15T06:51:42;40.33;;;21.10;;
45812;SDS011;31519;45.408;10.962;2022-12-15T06:54:11;43.17;;;20.85;;
45812;SDS011;31519;45.408;10.962;2022-12-15T06:56:40;44.05;;;22.00;;
45812;SDS011;31519;45.408;10.962;2022-12-15T06:59:09;43.85;;;21.13;;
45812;SDS011;31519;45.408;10.962;2022-12-15T07:01:38;44.83;;;20.65;;
45812;SDS011;31519;45.408;10.962;2022-12-15T07:04:08;46.13;;;21.15;;
45812;SDS011;31519;45.408;10.962;2022-12-15T07:06:38;45.70;;;21.23;;
45812;SDS011;31519;45.408;10.962;2022-12-15T07:09:09;50.35;;;22.95;;
45812;SDS011;31519;45.408;10.962;2022-12-15T07:11:40;46.65;;;20.35;;
45812;SDS011;31519;45.408;10.962;2022-12-15T07:14:08;40.00;;;19.75;;
45812;SDS011;31519;45.408;10.962;2022-12-15T07:16:37;45.08;;;21.13;;
45812;SDS011;31519;45.408;10.962;2022-12-15T07:19:07;65.93;;;23.77;;
45812;SDS011;31519;45.408;10.962;2022-12-15T07:21:38;43.03;;;20.27;;
45812;SDS011;31519;45.408;10.962;2022-12-15T07:24:11;47.03;;;20.80;;
45812;SDS011;31519;45.408;10.962;2022-12-15T07:26:40;43.25;;;21.63;;
45812;SDS011;31519;45.408;10.962;2022-12-15T07:29:09;49.85;;;21.23;;
45812;SDS011;31519;45.408;10.962;2022-12-15T07:31:39;44.65;;;20.65;;
45812;SDS011;31519;45.408;10.962;2022-12-15T07:34:08;45.95;;;20.33;;
45812;SDS011;31519;45.408;10.962;2022-12-15T07:36:36;50.78;;;20.90;;
45812;SDS011;31519;45.408;10.962;2022-12-15T07:39:05;42.83;;;20.13;;
45812;SDS011;31519;45.408;10.962;2022-12-15T07:41:33;47.35;;;20.85;;
45812;SDS011;31519;45.408;10.962;2022-12-15T07:44:02;47.13;;;22.48;;
45812;SDS011;31519;45.408;10.962;2022-12-15T07:46:32;47.13;;;20.98;;
45812;SDS011;31519;45.408;10.962;2022-12-15T07:49:00;46.42;;;20.60;;
45812;SDS011;31519;45.408;10.962;2022-12-15T07:51:29;41.10;;;19.10;;
45812;SDS011;31519;45.408;10.962;2022-12-15T07:53:57;48.22;;;20.88;;
45812;SDS011;31519;45.408;10.962;2022-12-15T07:56:26;47.08;;;19.08;;
45812;SDS011;31519;45.408;10.962;2022-12-15T07:58:55;34.30;;;18.50;;
45812;SDS011;31519;45.408;10.962;2022-12-15T08:01:23;51.08;;;18.15;;
45812;SDS011;31519;45.408;10.962;2022-12-15T08:03:51;44.47;;;19.30;;
45812;SDS011;31519;45.408;10.962;2022-12-15T08:06:20;37.70;;;19.33;;
45812;SDS011;31519;45.408;10.962;2022-12-15T08:08:49;44.20;;;19.02;;
45812;SDS011;31519;45.408;10.962;2022-12-15T08:11:20;41.45;;;19.30;;
45812;SDS011;31519;45.408;10.962;2022-12-15T08:13:49;39.00;;;17.42;;
45812;SDS011;31519;45.408;10.962;2022-12-15T08:16:38;41.92;;;18.55;;
45812;SDS011;31519;45.408;10.962;2022-12-15T08:19:09;36.33;;;19.45;;
45812;SDS011;31519;45.408;10.962;2022-12-15T08:21:39;33.90;;;17.48;;
45812;SDS011;31519;45.408;10.962;2022-12-15T08:24:08;39.17;;;18.52;;
45812;SDS011;31519;45.408;10.962;2022-12-15T08:26:37;42.13;;;18.77;;
45812;SDS011;31519;45.408;10.962;2022-12-15T08:29:09;33.25;;;17.15;;
45812;SDS011;31519;45.408;10.962;2022-12-15T08:31:59;39.20;;;16.58;;
45812;SDS011;31519;45.408;10.962;2022-12-15T08:34:28;40.50;;;19.17;;
45812;SDS011;31519;45.408;10.962;2022-12-15T08:36:57;37.28;;;17.83;;
45812;SDS011;31519;45.408;10.962;2022-12-15T08:39:25;35.45;;;17.05;;
45812;SDS011;31519;45.408;10.962;2022-12-15T08:41:54;34.20;;;16.38;;
45812;SDS011;31519;45.408;10.962;2022-12-15T08:44:22;36.15;;;16.90;;
45812;SDS011;31519;45.408;10.962;2022-12-15T08:46:52;31.83;;;18.67;;
45812;SDS011;31519;45.408;10.962;2022-12-15T08:49:20;37.13;;;17.27;;
45812;SDS011;31519;45.408;10.962;2022-12-15T08:51:50;30.35;;;17.48;;
45812;SDS011;31519;45.408;10.962;2022-12-15T08:54:19;36.15;;;18.52;;
45812;SDS011;31519;45.408;10.962;2022-12-15T08:56:48;38.22;;;16.83;;
45812;SDS011;31519;45.408;10.962;2022-12-15T08:59:16;34.13;;;17.10;;
45812;SDS011;31519;45.408;10.962;2022-12-15T09:01:46;31.63;;;16.85;;
45812;SDS011;31519;45.408;10.962;2022-12-15T09:04:15;35.58;;;18.20;;
45812;SDS011;31519;45.408;10.962;2022-12-15T09:06:44;36.65;;;16.83;;
45812;SDS011;31519;45.408;10.962;2022-12-15T09:09:17;36.80;;;17.42;;
45812;SDS011;31519;45.408;10.962;2022-12-15T09:11:46;37.45;;;16.77;;
45812;SDS011;31519;45.408;10.962;2022-12-15T09:14:15;33.20;;;15.52;;
45812;SDS011;31519;45.408;10.962;2022-12-15T09:16:52;33.78;;;16.85;;
45812;SDS011;31519;45.408;10.962;2022-12-15T09:19:20;36.88;;;17.92;;
45812;SDS011;31519;45.408;10.962;2022-12-15T09:21:49;34.65;;;17.02;;
45812;SDS011;31519;45.408;10.962;2022-12-15T09:24:17;38.05;;;16.60;;
45812;SDS011;31519;45.408;10.962;2022-12-15T09:26:59;36.97;;;16.70;;
45812;SDS011;31519;45.408;10.962;2022-12-15T09:29:27;35.40;;;16.83;;
45812;SDS011;31519;45.408;10.962;2022-12-15T09:31:57;35.25;;;17.55;;
45812;SDS011;31519;45.408;10.962;2022-12-15T09:34:26;29.77;;;17.23;;
45812;SDS011;31519;45.408;10.962;2022-12-15T09:36:55;37.47;;;16.58;;
45812;SDS011;31519;45.408;10.962;2022-12-15T09:39:23;31.88;;;15.95;;
45812;SDS011;31519;45.408;10.962;2022-12-15T09:41:53;32.22;;;16.70;;
45812;SDS011;31519;45.408;10.962;2022-12-15T09:44:25;36.58;;;17.02;;
45812;SDS011;31519;45.408;10.962;2022-12-15T09:52:17;36.72;;;16.52;;
45812;SDS011;31519;45.408;10.962;2022-12-15T09:54:49;43.72;;;19.40;;
45812;SDS011;31519;45.408;10.962;2022-12-15T10:00:17;30.17;;;16.10;;
45812;SDS011;31519;45.408;10.962;2022-12-15T10:06:08;35.45;;;16.00;;
45812;SDS011;31519;45.408;10.962;2022-12-15T10:11:39;35.40;;;16.05;;
45812;SDS011;31519;45.408;10.962;2022-12-15T10:14:45;38.88;;;15.60;;
45812;SDS011;31519;45.408;10.962;2022-12-15T10:20:24;40.92;;;16.17;;
45812;SDS011;31519;45.408;10.962;2022-12-15T10:23:04;39.78;;;17.90;;
45812;SDS011;31519;45.408;10.962;2022-12-15T10:25:39;35.15;;;16.67;;
45812;SDS011;31519;45.408;10.962;2022-12-15T10:28:28;27.50;;;14.38;;
45812;SDS011;31519;45.408;10.962;2022-12-15T10:33:55;30.95;;;14.38;;
45812;SDS011;31519;45.408;10.962;2022-12-15T10:36:28;34.00;;;15.98;;
45812;SDS011;31519;45.408;10.962;2022-12-15T10:38:56;35.80;;;15.65;;
45812;SDS011;31519;45.408;10.962;2022-12-15T10:41:26;30.70;;;15.23;;
45812;SDS011;31519;45.408;10.962;2022-12-15T10:46:29;33.33;;;15.65;;
45812;SDS011;31519;45.408;10.962;2022-12-15T10:49:19;34.38;;;15.52;;
45812;SDS011;31519;45.408;10.962;2022-12-15T10:51:52;44.20;;;16.67;;
45812;SDS011;31519;45.408;10.962;2022-12-15T10:54:25;38.80;;;14.48;;
45812;SDS011;31519;45.408;10.962;2022-12-15T10:56:58;30.27;;;15.38;;
45812;SDS011;31519;45.408;10.962;2022-12-15T10:59:31;46.28;;;16.00;;
45812;SDS011;31519;45.408;10.962;2022-12-15T11:10:25;33.22;;;14.70;;
45812;SDS011;31519;45.408;10.962;2022-12-15T11:13:19;34.50;;;16.30;;
45812;SDS011;31519;45.408;10.962;2022-12-15T11:15:49;46.33;;;16.02;;
45812;SDS011;31519;45.408;10.962;2022-12-15T11:23:49;30.60;;;15.23;;
45812;SDS011;31519;45.408;10.962;2022-12-15T11:26:29;32.83;;;14.55;;
45812;SDS011;31519;45.408;10.962;2022-12-15T11:29:12;38.42;;;15.68;;
45812;SDS011;31519;45.408;10.962;2022-12-15T11:31:52;29.05;;;14.57;;
45812;SDS011;31519;45.408;10.962;2022-12-15T11:34:38;32.80;;;14.90;;
45812;SDS011;31519;45.408;10.962;2022-12-15T11:45:58;35.03;;;13.82;;
45812;SDS011;31519;45.408;10.962;2022-12-15T11:59:35;31.67;;;12.70;;
45812;SDS011;31519;45.408;10.962;2022-12-15T12:11:19;22.13;;;10.82;;
45812;SDS011;31519;45.408;10.962;2022-12-15T12:14:10;18.63;;;9.98;;
45812;SDS011;31519;45.408;10.962;2022-12-15T12:22:19;18.58;;;9.30;;
45812;SDS011;31519;45.408;10.962;2022-12-15T12:24:56;16.25;;;9.60;;
45812;SDS011;31519;45.408;10.962;2022-12-15T12:30:12;20.15;;;9.35;;
45812;SDS011;31519;45.408;10.962;2022-12-15T12:35:32;21.50;;;10.02;;
45812;SDS011;31519;45.408;10.962;2022-12-15T12:38:06;14.27;;;7.93;;
45812;SDS011;31519;45.408;10.962;2022-12-15T12:40:51;20.08;;;8.98;;
45812;SDS011;31519;45.408;10.962;2022-12-15T12:43:42;20.45;;;7.53;;
45812;SDS011;31519;45.408;10.962;2022-12-15T12:46:29;15.70;;;8.75;;
45812;SDS011;31519;45.408;10.962;2022-12-15T12:51:54;15.45;;;7.00;;
45812;SDS011;31519;45.408;10.962;2022-12-15T12:55:16;22.10;;;7.72;;
45812;SDS011;31519;45.408;10.962;2022-12-15T12:57:42;20.30;;;8.65;;
45812;SDS011;31519;45.408;10.962;2022-12-15T13:00:22;16.63;;;8.75;;
45812;SDS011;31519;45.408;10.962;2022-12-15T13:05:32;17.10;;;8.20;;
45812;SDS011;31519;45.408;10.962;2022-12-15T13:10:32;19.30;;;8.75;;
45812;SDS011;31519;45.408;10.962;2022-12-15T13:24:17;16.33;;;7.97;;
45812;SDS011;31519;45.408;10.962;2022-12-15T13:26:51;19.05;;;10.90;;
45812;SDS011;31519;45.408;10.962;2022-12-15T13:29:20;26.10;;;10.55;;
45812;SDS011;31519;45.408;10.962;2022-12-15T13:31:50;30.75;;;14.55;;
45812;SDS011;31519;45.408;10.962;2022-12-15T13:34:21;35.20;;;16.88;;
45812;SDS011;31519;45.408;10.962;2022-12-15T13:36:52;31.73;;;17.00;;
45812;SDS011;31519;45.408;10.962;2022-12-15T13:39:51;31.83;;;16.40;;
45812;SDS011;31519;45.408;10.962;2022-12-15T13:42:26;32.58;;;16.05;;
45812;SDS011;31519;45.408;10.962;2022-12-15T13:45:20;35.33;;;17.35;;
45812;SDS011;31519;45.408;10.962;2022-12-15T13:47:59;36.20;;;16.88;;
45812;SDS011;31519;45.408;10.962;2022-12-15T13:51:13;28.05;;;17.00;;
45812;SDS011;31519;45.408;10.962;2022-12-15T13:53:25;36.67;;;19.20;;
45812;SDS011;31519;45.408;10.962;2022-12-15T13:58:45;35.40;;;18.88;;
45812;SDS011;31519;45.408;10.962;2022-12-15T14:01:23;41.28;;;19.17;;
45812;SDS011;31519;45.408;10.962;2022-12-15T14:04:02;35.75;;;18.52;;
45812;SDS011;31519;45.408;10.962;2022-12-15T14:06:36;35.05;;;19.38;;
45812;SDS011;31519;45.408;10.962;2022-12-15T14:09:12;36.97;;;18.73;;
45812;SDS011;31519;45.408;10.962;2022-12-15T14:11:43;42.00;;;18.83;;
45812;SDS011;31519;45.408;10.962;2022-12-15T14:14:22;49.15;;;20.13;;
45812;SDS011;31519;45.408;10.962;2022-12-15T14:19:40;45.45;;;20.88;;
45812;SDS011;31519;45.408;10.962;2022-12-15T14:22:26;91.47;;;25.80;;
45812;SDS011;31519;45.408;10.962;2022-12-15T14:25:01;46.60;;;21.45;;
45812;SDS011;31519;45.408;10.962;2022-12-15T14:27:40;43.60;;;21.77;;
45812;SDS011;31519;45.408;10.962;2022-12-15T14:30:15;40.60;;;20.52;;
45812;SDS011;31519;45.408;10.962;2022-12-15T14:33:00;41.45;;;20.05;;
45812;SDS011;31519;45.408;10.962;2022-12-15T14:35:40;42.08;;;20.23;;
45812;SDS011;31519;45.408;10.962;2022-12-15T14:38:17;45.45;;;22.10;;
45812;SDS011;31519;45.408;10.962;2022-12-15T14:40:51;36.00;;;20.45;;
45812;SDS011;31519;45.408;10.962;2022-12-15T14:43:27;36.05;;;19.83;;
45812;SDS011;31519;45.408;10.962;2022-12-15T14:46:08;37.00;;;18.70;;
45812;SDS011;31519;45.408;10.962;2022-12-15T14:48:43;60.05;;;21.80;;
45812;SDS011;31519;45.408;10.962;2022-12-15T14:51:24;61.60;;;24.35;;
45812;SDS011;31519;45.408;10.962;2022-12-15T14:53:55;48.40;;;21.35;;
45812;SDS011;31519;45.408;10.962;2022-12-15T14:56:25;54.40;;;26.00;;
45812;SDS011;31519;45.408;10.962;2022-12-15T14:58:59;41.10;;;17.63;;
45812;SDS011;31519;45.408;10.962;2022-12-15T15:01:34;40.65;;;17.73;;
45812;SDS011;31519;45.408;10.962;2022-12-15T15:04:25;46.40;;;20.38;;
45812;SDS011;31519;45.408;10.962;2022-12-15T15:06:59;26.80;;;13.38;;
45812;SDS011;31519;45.408;10.962;2022-12-15T15:09:31;38.78;;;19.80;;
45812;SDS011;31519;45.408;10.962;2022-12-15T15:14:46;35.60;;;16.92;;
45812;SDS011;31519;45.408;10.962;2022-12-15T15:19:58;35.03;;;14.02;;
45812;SDS011;31519;45.408;10.962;2022-12-15T15:22:39;29.13;;;13.30;;
45812;SDS011;31519;45.408;10.962;2022-12-15T15:30:51;30.70;;;12.67;;
45812;SDS011;31519;45.408;10.962;2022-12-15T15:33:25;29.75;;;13.90;;
45812;SDS011;31519;45.408;10.962;2022-12-15T15:35:55;35.63;;;14.38;;
45812;SDS011;31519;45.408;10.962;2022-12-15T15:38:38;24.52;;;15.02;;
45812;SDS011;31519;45.408;10.962;2022-12-15T15:41:15;28.95;;;13.80;;
45812;SDS011;31519;45.408;10.962;2022-12-15T15:43:57;31.63;;;14.55;;
45812;SDS011;31519;45.408;10.962;2022-12-15T15:46:28;27.95;;;14.20;;
45812;SDS011;31519;45.408;10.962;2022-12-15T15:49:04;26.90;;;14.60;;
45812;SDS011;31519;45.408;10.962;2022-12-15T15:51:36;27.83;;;14.10;;
45812;SDS011;31519;45.408;10.962;2022-12-15T15:54:05;28.85;;;14.50;;
45812;SDS011;31519;45.408;10.962;2022-12-15T15:56:39;28.77;;;14.30;;
45812;SDS011;31519;45.408;10.962;2022-12-15T15:59:12;28.02;;;13.75;;
45812;SDS011;31519;45.408;10.962;2022-12-15T16:01:44;32.90;;;15.15;;
45812;SDS011;31519;45.408;10.962;2022-12-15T16:04:19;36.80;;;16.58;;
45812;SDS011;31519;45.408;10.962;2022-12-15T16:06:48;34.83;;;15.82;;
45812;SDS011;31519;45.408;10.962;2022-12-15T16:09:17;28.42;;;16.08;;
45812;SDS011;31519;45.408;10.962;2022-12-15T16:11:46;33.42;;;17.10;;
45812;SDS011;31519;45.408;10.962;2022-12-15T16:14:15;30.63;;;15.20;;
45812;SDS011;31519;45.408;10.962;2022-12-15T16:16:45;44.17;;;19.30;;
45812;SDS011;31519;45.408;10.962;2022-12-15T16:19:13;124.43;;;36.30;;
45812;SDS011;31519;45.408;10.962;2022-12-15T16:21:41;30.65;;;16.25;;
45812;SDS011;31519;45.408;10.962;2022-12-15T16:24:12;32.35;;;14.18;;
45812;SDS011;31519;45.408;10.962;2022-12-15T16:26:48;28.75;;;14.13;;
45812;SDS011;31519;45.408;10.962;2022-12-15T16:29:18;30.95;;;15.68;;
45812;SDS011;31519;45.408;10.962;2022-12-15T16:31:49;34.38;;;16.15;;
45812;SDS011;31519;45.408;10.962;2022-12-15T16:39:01;35.25;;;15.15;;
45812;SDS011;31519;45.408;10.962;2022-12-15T16:41:30;30.48;;;14.50;;
45812;SDS011;31519;45.408;10.962;2022-12-15T16:43:59;34.72;;;14.73;;
45812;SDS011;31519;45.408;10.962;2022-12-15T16:46:29;29.40;;;15.82;;
45812;SDS011;31519;45.408;10.962;2022-12-15T16:48:57;41.50;;;16.42;;
45812;SDS011;31519;45.408;10.962;2022-12-15T16:58:36;35.90;;;17.23;;
45812;SDS011;31519;45.408;10.962;2022-12-15T17:01:04;32.83;;;16.83;;
45812;SDS011;31519;45.408;10.962;2022-12-15T17:03:32;38.22;;;16.15;;
45812;SDS011;31519;45.408;10.962;2022-12-15T17:06:00;33.10;;;13.05;;
45812;SDS011;31519;45.408;10.962;2022-12-15T17:08:37;29.88;;;15.32;;
45812;SDS011;31519;45.408;10.962;2022-12-15T17:11:18;32.92;;;14.32;;
45812;SDS011;31519;45.408;10.962;2022-12-15T17:13:48;33.03;;;15.48;;
45812;SDS011;31519;45.408;10.962;2022-12-15T17:16:19;34.28;;;14.30;;
45812;SDS011;31519;45.408;10.962;2022-12-15T17:18:49;25.00;;;12.80;;
45812;SDS011;31519;45.408;10.962;2022-12-15T17:21:18;32.85;;;15.23;;
45812;SDS011;31519;45.408;10.962;2022-12-15T17:23:52;23.95;;;11.98;;
45812;SDS011;31519;45.408;10.962;2022-12-15T17:26:24;26.70;;;12.57;;
45812;SDS011;31519;45.408;10.962;2022-12-15T17:29:00;28.98;;;13.45;;
45812;SDS011;31519;45.408;10.962;2022-12-15T17:31:34;32.40;;;12.88;;
45812;SDS011;31519;45.408;10.962;2022-12-15T17:34:46;22.45;;;11.43;;
45812;SDS011;31519;45.408;10.962;2022-12-15T17:36:59;31.48;;;11.07;;
45812;SDS011;31519;45.408;10.962;2022-12-15T17:39:30;22.55;;;11.35;;